Time;durP1;ratioP1;P1;durP2;ratioP2;P2;SDS_P1;SDS_P2;PMS_P1;PMS_P2;Temp;Humidity;BMP_temperature;BMP_pressure;BME280_temperature;BME280_humidity;BME280_pressure;Samples;Min_cycle;Max_cycle;Signal;HPM_P1;HPM_P2
2023/03/29 00:01:00;;;;;;;;;3.75;3.50;;;;;22.98;32.09;101091.22;5018608;28;45317;-78
2023/03/29 00:03:29;;;;;;;;;4.00;2.50;;;;;22.96;32.05;101085.97;5051106;28;47022;-78
2023/03/29 00:06:01;;;;;;;;;3.50;3.25;;;;;22.97;32.06;101087.69;5012547;28;45783;-78
2023/03/29 00:08:28;;;;;;;;;2.75;2.75;;;;;22.99;32.18;101091.09;5030624;28;45223;-78
2023/03/29 00:10:55;;;;;;;;;5.00;3.50;;;;;23.00;32.34;101066.13;5034237;28;45373;-78
2023/03/29 00:13:21;;;;;;;;;3.00;2.25;;;;;22.94;31.81;101070.06;5037488;28;48703;-78
2023/03/29 00:15:46;;;;;;;;;2.25;2.25;;;;;22.96;31.85;101074.47;5044576;28;45576;-78
2023/03/29 00:18:11;;;;;;;;;4.00;3.00;;;;;22.98;31.74;101070.69;5020583;28;45606;-78
2023/03/29 00:20:37;;;;;;;;;2.00;2.00;;;;;22.99;32.27;101074.25;5029420;28;45439;-78
2023/03/29 00:23:02;;;;;;;;;4.50;4.50;;;;;22.91;32.09;101067.66;5053092;28;63109;-77
2023/03/29 00:25:27;;;;;;;;;3.00;3.00;;;;;22.99;31.97;101074.25;5011189;28;45645;-77
2023/03/29 00:27:55;;;;;;;;;3.00;2.75;;;;;22.99;32.09;101076.91;5026522;28;64951;-78
2023/03/29 00:30:21;;;;;;;;;4.00;4.00;;;;;22.96;31.71;101071.78;5030681;28;45468;-78
2023/03/29 00:32:46;;;;;;;;;1.00;0.25;;;;;22.98;32.36;101065.38;5055135;28;45416;-78
2023/03/29 00:35:11;;;;;;;;;3.25;3.25;;;;;22.97;31.81;101062.84;5056561;28;45445;-78
2023/03/29 00:37:37;;;;;;;;;4.00;4.00;;;;;22.98;31.96;101072.53;5022980;28;51080;-78
2023/03/29 00:40:10;;;;;;;;;3.75;3.00;;;;;22.96;32.00;101071.78;5061089;28;56973;-78
2023/03/29 00:42:36;;;;;;;;;4.75;3.00;;;;;22.98;31.63;101073.38;5044861;28;45810;-78
2023/03/29 00:45:04;;;;;;;;;3.25;3.25;;;;;22.96;31.83;101061.13;5040093;28;45444;-78
2023/03/29 00:47:32;;;;;;;;;5.25;4.25;;;;;22.97;32.20;101073.50;5053104;28;45655;-77
2023/03/29 00:50:15;;;;;;;;;3.75;3.75;;;;;22.97;32.23;101076.19;5058984;28;45375;-77
2023/03/29 00:52:45;;;;;;;;;5.00;4.00;;;;;22.98;31.84;101072.53;5049165;28;45866;-77
2023/03/29 00:55:15;;;;;;;;;3.00;3.00;;;;;22.98;31.82;101075.19;5052415;28;45709;-77
2023/03/29 00:57:45;;;;;;;;;2.00;2.00;;;;;22.99;32.11;101082.25;5018752;28;45382;-76
2023/03/29 01:00:13;;;;;;;;;3.25;3.25;;;;;22.99;31.85;101074.25;5029426;28;45302;-77
2023/03/29 01:02:41;;;;;;;;;4.25;3.25;;;;;22.95;31.86;101065.63;5030564;28;45587;-77
2023/03/29 01:05:13;;;;;;;;;2.00;2.00;;;;;22.96;31.92;101069.13;5053654;28;62962;-76
2023/03/29 01:07:42;;;;;;;;;3.00;3.00;;;;;22.98;31.71;101061.84;5042090;28;45359;-76
2023/03/29 01:10:11;;;;;;;;;5.75;3.00;;;;;22.98;32.21;101070.69;5040477;28;45400;-76
2023/03/29 01:12:51;;;;;;;;;4.25;2.50;;;;;22.98;31.89;101067.19;5026522;28;46213;-76
2023/03/29 01:15:20;;;;;;;;;5.00;2.75;;;;;22.94;31.75;101050.56;5031440;28;45602;-76
2023/03/29 01:17:49;;;;;;;;;3.75;3.75;;;;;22.97;31.76;101054.84;5027336;28;45206;-76
2023/03/29 01:20:21;;;;;;;;;3.75;3.75;;;;;22.98;32.14;101048.50;5018092;28;46256;-76
2023/03/29 01:22:59;;;;;;;;;2.75;2.25;;;;;22.95;32.00;101046.94;5051545;28;46256;-76
2023/03/29 01:25:40;;;;;;;;;3.50;3.25;;;;;22.90;31.96;101031.25;5048372;28;46567;-76
2023/03/29 01:28:12;;;;;;;;;4.50;4.00;;;;;22.96;32.00;101048.63;5033443;28;45666;-77
2023/03/29 01:31:16;;;;;;;;;2.00;2.00;;;;;22.97;32.24;101042.31;5035688;28;45397;-76
2023/03/29 01:33:46;;;;;;;;;3.00;3.00;;;;;22.93;32.00;101027.50;5048075;28;46271;-77
2023/03/29 01:36:26;;;;;;;;;3.00;3.00;;;;;22.92;32.01;101029.31;5035932;28;45363;-77
2023/03/29 01:39:05;;;;;;;;;3.25;3.25;;;;;22.97;32.16;101028.13;5030937;28;45524;-77
2023/03/29 01:42:09;;;;;;;;;2.75;2.25;;;;;22.96;32.27;101040.63;5022869;28;45714;-77
2023/03/29 01:44:53;;;;;;;;;3.75;2.00;;;;;22.92;31.83;101029.31;5003137;28;46640;-77
2023/03/29 01:47:33;;;;;;;;;4.75;3.00;;;;;22.96;31.84;101037.09;5041842;28;45698;-77
2023/03/29 01:50:06;;;;;;;;;2.25;2.25;;;;;22.95;32.01;101046.94;5038529;28;45357;-77
2023/03/29 01:53:02;;;;;;;;;1.25;1.25;;;;;22.96;32.06;101034.44;5025250;28;45413;-77
2023/03/29 01:55:33;;;;;;;;;3.00;3.00;;;;;22.94;31.86;101035.38;5042339;28;46122;-77
2023/03/29 01:58:00;;;;;;;;;4.50;3.00;;;;;22.91;31.97;101024.97;5033089;28;45367;-77
2023/03/29 02:00:28;;;;;;;;;3.75;3.75;;;;;22.94;31.61;101035.38;5026803;28;66797;-77
2023/03/29 02:02:58;;;;;;;;;4.25;3.00;;;;;22.96;31.68;101042.44;5038464;28;45289;-77
2023/03/29 02:05:25;;;;;;;;;2.50;2.50;;;;;22.92;31.72;101028.47;5041549;28;47064;-77
2023/03/29 02:07:52;;;;;;;;;2.25;2.00;;;;;22.95;31.70;101038.94;5025430;28;45320;-78
2023/03/29 02:10:17;;;;;;;;;3.00;1.25;;;;;22.94;31.95;101032.72;5043511;28;45614;-77
2023/03/29 02:12:43;;;;;;;;;3.75;3.00;;;;;22.92;31.80;101023.13;5031871;28;45537;-78
2023/03/29 02:15:14;;;;;;;;;2.00;2.00;;;;;22.94;32.12;101032.72;5028190;28;45555;-77
2023/03/29 02:17:39;;;;;;;;;4.00;2.75;;;;;22.90;31.86;101028.59;5015290;28;45580;-77
2023/03/29 02:20:13;;;;;;;;;4.50;2.00;;;;;22.93;31.87;101025.69;5022620;28;45446;-77
2023/03/29 02:22:46;;;;;;;;;4.00;2.00;;;;;22.94;32.24;101021.19;5043936;28;45513;-77
2023/03/29 02:25:12;;;;;;;;;4.50;3.75;;;;;22.90;32.27;101030.41;5025208;28;45310;-77
2023/03/29 02:27:38;;;;;;;;;2.50;2.25;;;;;22.93;31.92;101024.84;5028145;28;63558;-77
2023/03/29 02:30:06;;;;;;;;;4.50;2.50;;;;;22.93;31.55;101020.34;5051652;28;62343;-77
2023/03/29 02:33:04;;;;;;;;;3.75;3.00;;;;;22.89;32.11;101002.00;5022766;28;45688;-77
2023/03/29 02:35:37;;;;;;;;;3.50;3.50;;;;;22.94;31.45;101010.53;5043082;28;47277;-77
2023/03/29 02:38:05;;;;;;;;;4.00;4.00;;;;;22.87;31.99;100993.25;5034041;28;45293;-77
2023/03/29 02:40:32;;;;;;;;;3.00;3.00;;;;;22.87;32.05;100996.78;5030797;28;45437;-77
2023/03/29 02:43:00;;;;;;;;;2.75;2.75;;;;;22.84;31.84;100988.16;5052045;28;45557;-77
2023/03/29 02:45:26;;;;;;;;;5.75;3.00;;;;;22.92;32.03;100993.78;5058019;28;45555;-77
2023/03/29 02:47:54;;;;;;;;;3.50;3.25;;;;;22.91;31.87;100984.94;5033927;28;45596;-77
2023/03/29 02:50:20;;;;;;;;;1.25;1.25;;;;;22.86;31.80;100973.75;5050181;28;45540;-77
2023/03/29 02:52:58;;;;;;;;;4.25;3.75;;;;;22.89;31.74;100981.50;5023871;28;49590;-78
2023/03/29 02:55:29;;;;;;;;;5.50;4.00;;;;;22.93;31.84;100990.16;5037378;28;45314;-77
2023/03/29 02:57:54;;;;;;;;;3.75;3.00;;;;;22.81;31.83;100961.72;5027963;28;45263;-77
2023/03/29 03:00:22;;;;;;;;;3.50;1.00;;;;;22.91;31.85;100978.72;5056383;28;45274;-76
2023/03/29 03:02:49;;;;;;;;;3.25;3.00;;;;;22.92;32.04;100985.75;5056324;28;45427;-76
2023/03/29 03:05:15;;;;;;;;;3.25;2.25;;;;;22.88;31.97;100962.97;5013467;28;47380;-76
2023/03/29 03:07:40;;;;;;;;;3.25;2.75;;;;;22.89;32.03;100977.97;5054118;28;45218;-77
2023/03/29 03:10:08;;;;;;;;;2.25;2.00;;;;;22.91;31.41;100978.72;5038058;28;45273;-77
2023/03/29 03:12:34;;;;;;;;;3.00;3.00;;;;;22.89;31.92;100988.66;5041253;28;45573;-78
2023/03/29 03:14:59;;;;;;;;;3.75;2.75;;;;;22.89;31.93;100989.50;5043507;28;46996;-77
2023/03/29 03:17:25;;;;;;;;;2.00;2.00;;;;;22.90;31.94;100988.53;5053086;28;45280;-77
2023/03/29 03:19:50;;;;;;;;;2.00;1.75;;;;;22.90;32.08;100982.38;5038787;28;45474;-76
2023/03/29 03:22:15;;;;;;;;;3.00;3.00;;;;;22.89;31.73;100986.84;5039496;28;64197;-77
2023/03/29 03:24:40;;;;;;;;;3.25;1.25;;;;;22.91;32.18;100982.25;5050077;28;65287;-77
2023/03/29 03:27:07;;;;;;;;;2.75;2.75;;;;;22.91;31.91;100978.72;5043350;28;49056;-77
2023/03/29 03:29:32;;;;;;;;;2.25;2.00;;;;;22.87;31.87;100962.09;5047414;28;45569;-77
2023/03/29 03:31:58;;;;;;;;;5.25;2.50;;;;;22.90;31.87;100963.69;5036107;28;46428;-77
2023/03/29 03:34:23;;;;;;;;;2.75;2.50;;;;;22.90;31.86;100964.53;5031085;28;45357;-78
2023/03/29 03:36:49;;;;;;;;;4.00;4.00;;;;;22.90;31.67;100977.88;5050432;28;51294;-78
2023/03/29 03:39:14;;;;;;;;;2.75;2.75;;;;;22.88;31.92;100985.16;5042171;28;45364;-78
2023/03/29 03:41:40;;;;;;;;;4.25;3.00;;;;;22.91;32.16;100992.06;5035499;28;45705;-78
2023/03/29 03:44:05;;;;;;;;;4.25;2.75;;;;;22.88;32.09;100973.63;5036803;28;67639;-78
2023/03/29 03:46:31;;;;;;;;;3.75;3.00;;;;;22.88;31.94;100970.97;5034545;28;45329;-78
2023/03/29 03:48:57;;;;;;;;;2.00;2.00;;;;;22.87;31.91;100966.56;5033647;28;45416;-77
2023/03/29 03:51:22;;;;;;;;;3.00;2.75;;;;;22.88;32.04;100970.97;5046436;28;45507;-76
2023/03/29 03:53:48;;;;;;;;;3.00;3.00;;;;;22.90;31.67;100983.22;5056477;28;66056;-77
2023/03/29 03:56:13;;;;;;;;;3.00;2.75;;;;;22.91;32.21;100984.06;5030198;28;45395;-77
2023/03/29 03:58:39;;;;;;;;;2.25;2.00;;;;;22.88;31.76;100982.47;5023235;28;45511;-77
2023/03/29 04:01:07;;;;;;;;;3.00;3.00;;;;;22.84;32.00;100964.13;5034586;28;45488;-77
2023/03/29 04:03:32;;;;;;;;;3.50;3.50;;;;;22.90;32.07;100971.69;5022614;28;47793;-77
2023/03/29 04:06:01;;;;;;;;;3.75;2.25;;;;;22.90;31.93;100974.38;5055833;28;69164;-76
2023/03/29 04:08:27;;;;;;;;;4.00;2.25;;;;;22.90;32.24;100977.03;5027333;28;45381;-77
2023/03/29 04:10:54;;;;;;;;;4.25;2.75;;;;;22.86;31.89;100964.88;5022617;28;68733;-77
2023/03/29 04:13:19;;;;;;;;;4.00;2.25;;;;;22.89;32.20;100975.31;5034866;28;45551;-78
2023/03/29 04:15:44;;;;;;;;;3.00;3.00;;;;;22.86;32.11;100965.75;5037415;28;45511;-77
2023/03/29 04:18:11;;;;;;;;;2.00;2.00;;;;;22.89;31.80;100959.31;5031858;28;45404;-78
2023/03/29 04:20:36;;;;;;;;;6.50;3.50;;;;;22.88;31.93;100963.81;5041995;28;45432;-78
2023/03/29 04:23:01;;;;;;;;;2.75;2.75;;;;;22.87;31.63;100956.75;5046287;28;46138;-78
2023/03/29 04:25:27;;;;;;;;;3.00;3.00;;;;;22.82;32.04;100940.22;5037601;28;45313;-77
2023/03/29 04:27:52;;;;;;;;;4.00;3.50;;;;;22.86;31.98;100960.41;5044390;28;45319;-77
2023/03/29 04:30:18;;;;;;;;;3.25;1.50;;;;;22.86;31.66;100960.41;5028780;28;45444;-78
2023/03/29 04:32:43;;;;;;;;;3.00;2.50;;;;;22.88;32.16;100958.47;5038355;28;64565;-78
2023/03/29 04:35:09;;;;;;;;;3.75;3.00;;;;;22.87;32.02;100963.91;5054938;28;45248;-77
2023/03/29 04:37:35;;;;;;;;;3.00;3.00;;;;;22.82;32.19;100958.06;5026702;28;45480;-77
2023/03/29 04:40:03;;;;;;;;;3.00;3.00;;;;;22.78;31.92;100952.09;5033535;28;45562;-77
2023/03/29 04:42:29;;;;;;;;;4.00;3.00;;;;;22.87;32.09;100970.09;5043870;28;46034;-75
2023/03/29 04:44:54;;;;;;;;;3.25;3.00;;;;;22.84;31.89;100949.00;5029640;28;45480;-76
2023/03/29 04:47:22;;;;;;;;;3.75;2.50;;;;;22.87;31.81;100950.56;5034385;28;54887;-75
2023/03/29 04:49:48;;;;;;;;;3.00;2.00;;;;;22.87;31.84;100954.06;5031859;28;45495;-76
2023/03/29 04:52:13;;;;;;;;;3.50;2.75;;;;;22.83;32.07;100941.09;5025128;28;60622;-76
2023/03/29 04:54:39;;;;;;;;;2.00;2.00;;;;;22.85;32.06;100949.84;5046077;28;63804;-76
2023/03/29 04:57:06;;;;;;;;;3.50;3.50;;;;;22.84;31.85;100937.44;5023128;28;57325;-76
2023/03/29 04:59:31;;;;;;;;;3.25;2.00;;;;;22.85;31.69;100936.50;5046040;28;45651;-77
2023/03/29 05:01:57;;;;;;;;;1.25;1.25;;;;;22.84;31.82;100938.31;5057230;28;45583;-77
2023/03/29 05:04:23;;;;;;;;;2.25;1.25;;;;;22.85;31.69;100948.00;5040501;28;45297;-77
2023/03/29 05:06:49;;;;;;;;;5.00;3.25;;;;;22.87;32.34;100954.06;5026020;28;45437;-77
2023/03/29 05:09:16;;;;;;;;;3.00;3.00;;;;;22.82;32.23;100944.72;5036933;28;45352;-83
2023/03/29 05:11:41;;;;;;;;;3.00;1.00;;;;;22.81;31.97;100951.03;5036274;28;48051;-83
2023/03/29 05:14:08;;;;;;;;;5.75;2.50;;;;;22.86;31.69;100968.41;5017403;28;46076;-77
2023/03/29 05:16:34;;;;;;;;;2.75;2.75;;;;;22.79;32.16;100947.63;5037547;28;45420;-79
2023/03/29 05:18:59;;;;;;;;;1.00;0.25;;;;;22.86;32.21;100963.06;5019278;28;45643;-85
2023/03/29 05:21:27;;;;;;;;;5.00;2.00;;;;;22.94;32.46;100957.13;5036062;28;46311;-80
2023/03/29 05:23:55;;;;;;;;;2.25;2.25;;;;;22.83;32.08;100946.44;5021687;28;45661;-80
2023/03/29 05:26:25;;;;;;;;;1.25;1.25;;;;;22.86;32.18;100941.72;5022719;28;45436;-81
2023/03/29 05:28:52;;;;;;;;;2.75;2.75;;;;;22.97;32.11;100951.56;5025320;28;45325;-79
2023/03/29 05:31:18;;;;;;;;;3.25;1.00;;;;;23.05;32.07;100969.69;5018488;28;45508;-84
2023/03/29 05:33:46;;;;;;;;;2.25;2.25;;;;;22.84;31.99;100921.44;5027863;28;45616;-83
2023/03/29 05:36:14;;;;;;;;;2.00;2.00;;;;;23.03;31.84;100939.56;5034175;28;45395;-83
2023/03/29 05:38:40;;;;;;;;;3.00;3.00;;;;;22.93;32.30;100910.94;5020621;28;45626;-80
2023/03/29 05:41:06;;;;;;;;;3.00;2.00;;;;;23.13;32.30;100932.59;5049769;28;47183;-81
2023/03/29 05:43:32;;;;;;;;;1.00;1.00;;;;;23.19;32.11;100940.13;5010365;28;46104;-86
2023/03/29 05:46:00;;;;;;;;;2.25;1.50;;;;;23.24;32.23;100947.78;5031657;28;46911;-79
2023/03/29 05:48:29;;;;;;;;;2.00;2.00;;;;;23.13;32.20;100912.09;5037913;28;45433;-80
2023/03/29 05:50:55;;;;;;;;;2.00;2.00;;;;;23.30;32.19;100941.97;5037538;28;46493;-82
2023/03/29 05:53:22;;;;;;;;;3.50;2.25;;;;;23.34;32.22;100950.59;5048397;28;45246;-78
2023/03/29 05:55:47;;;;;;;;;2.50;2.00;;;;;23.34;32.26;100942.56;5035455;28;45472;-77
2023/03/29 05:58:14;;;;;;;;;2.25;2.25;;;;;23.38;32.18;100936.88;5045011;28;45463;-78
2023/03/29 06:00:40;;;;;;;;;2.25;2.25;;;;;23.47;32.38;100946.00;5020422;28;47799;-78
2023/03/29 06:03:09;;;;;;;;;1.75;1.25;;;;;23.50;31.89;100954.63;5029716;28;45392;-78
2023/03/29 06:05:35;;;;;;;;;3.00;2.75;;;;;23.54;31.87;100949.91;5033416;28;45518;-79
2023/03/29 06:08:01;;;;;;;;;2.00;1.25;;;;;23.59;32.14;100947.72;5031607;28;45278;-78
2023/03/29 06:10:27;;;;;;;;;1.25;1.25;;;;;23.61;32.07;100945.78;5049386;28;46357;-79
2023/03/29 06:12:56;;;;;;;;;1.25;0.75;;;;;23.66;32.18;100948.94;5034466;28;45195;-78
2023/03/29 06:15:22;;;;;;;;;3.00;1.25;;;;;23.69;32.22;100932.66;5028224;28;45360;-74
2023/03/29 06:17:47;;;;;;;;;2.50;2.00;;;;;23.69;32.61;100937.13;5048433;28;45578;-76
2023/03/29 06:20:13;;;;;;;;;1.75;1.75;;;;;23.75;32.88;100935.81;5024532;28;70112;-73
2023/03/29 06:22:39;;;;;;;;;4.25;2.00;;;;;23.77;32.96;100934.72;5039813;28;45298;-73
2023/03/29 06:25:06;;;;;;;;;3.75;1.75;;;;;23.79;32.68;100934.59;5041861;28;45321;-72
2023/03/29 06:27:32;;;;;;;;;2.50;2.00;;;;;23.77;32.93;100928.53;5042052;28;45338;-74
2023/03/29 06:30:00;;;;;;;;;3.25;3.25;;;;;23.82;33.18;100931.72;5019328;28;61713;-72
2023/03/29 06:32:26;;;;;;;;;2.50;2.00;;;;;23.81;33.01;100928.19;5040695;28;45835;-79
2023/03/29 06:34:52;;;;;;;;;6.75;3.25;;;;;23.85;33.29;100926.09;5033704;28;45337;-77
2023/03/29 06:37:18;;;;;;;;;4.50;2.50;;;;;23.91;32.86;100927.47;5029652;28;45448;-78
2023/03/29 06:39:43;;;;;;;;;4.25;2.25;;;;;23.93;32.82;100933.53;5039457;28;45436;-77
2023/03/29 06:42:09;;;;;;;;;2.00;2.00;;;;;23.96;32.92;100925.28;5051070;28;45284;-78
2023/03/29 06:44:35;;;;;;;;;1.25;1.00;;;;;24.02;32.83;100930.13;5036194;28;45416;-77
2023/03/29 06:47:00;;;;;;;;;4.75;2.25;;;;;24.05;32.74;100937.88;5035714;28;45322;-78
2023/03/29 06:49:26;;;;;;;;;0.75;0.50;;;;;24.08;32.81;100942.97;5042541;28;45903;-78
2023/03/29 06:51:52;;;;;;;;;2.50;1.25;;;;;24.16;32.60;100947.72;5042458;28;45341;-77
2023/03/29 06:54:18;;;;;;;;;1.50;1.50;;;;;24.15;32.55;100941.53;5047217;28;45420;-77
2023/03/29 06:56:46;;;;;;;;;1.75;1.75;;;;;24.22;32.47;100936.50;5023503;28;45721;-78
2023/03/29 06:59:12;;;;;;;;;1.50;1.25;;;;;24.23;32.49;100933.72;5020566;28;47549;-77
2023/03/29 07:01:37;;;;;;;;;1.25;1.25;;;;;24.29;32.59;100944.88;5018491;28;45441;-77
2023/03/29 07:04:06;;;;;;;;;2.25;1.25;;;;;24.31;32.46;100943.81;5039625;28;45352;-77
2023/03/29 07:06:32;;;;;;;;;2.00;0.50;;;;;24.32;32.55;100936.63;5039446;28;45531;-77
2023/03/29 07:09:00;;;;;;;;;2.25;1.00;;;;;24.38;32.61;100941.44;5047554;28;45214;-77
2023/03/29 07:11:25;;;;;;;;;1.75;1.25;;;;;24.41;32.28;100944.72;5023995;28;45673;-78
2023/03/29 07:13:51;;;;;;;;;3.00;2.00;;;;;24.43;32.58;100948.16;5035905;28;45462;-78
2023/03/29 07:16:17;;;;;;;;;3.25;1.25;;;;;24.46;32.26;100960.41;5023825;28;71565;-70
2023/03/29 07:18:44;;;;;;;;;1.50;1.50;;;;;24.49;32.66;100948.59;5039629;28;47168;-72
2023/03/29 07:21:11;;;;;;;;;4.25;2.25;;;;;24.46;32.58;100944.34;5040488;28;45935;-74
2023/03/29 07:23:37;;;;;;;;;2.00;2.00;;;;;24.47;32.50;100953.22;5024336;28;45429;-70
2023/03/29 07:26:04;;;;;;;;;4.00;2.25;;;;;24.47;32.64;100947.88;5036713;28;45377;-72
2023/03/29 07:28:29;;;;;;;;;3.25;2.25;;;;;24.43;32.47;100950.81;5036448;28;47384;-74
2023/03/29 07:31:10;;;;;;;;;3.00;2.25;;;;;24.44;32.73;100947.16;5035295;28;47961;-73
2023/03/29 07:33:36;;;;;;;;;6.50;2.00;;;;;24.43;32.60;100952.63;5026566;28;45385;-76
2023/03/29 07:36:03;;;;;;;;;2.25;2.25;;;;;24.43;32.38;100949.94;5036093;28;45400;-75
2023/03/29 07:38:30;;;;;;;;;4.00;1.25;;;;;24.42;32.60;100953.63;5028660;28;48043;-71
2023/03/29 07:40:56;;;;;;;;;4.75;1.50;;;;;24.41;32.72;100943.88;5049759;28;45373;-76
2023/03/29 07:43:22;;;;;;;;;4.75;4.25;;;;;24.43;32.91;100952.63;5058032;28;45496;-79
2023/03/29 07:45:49;;;;;;;;;4.25;2.25;;;;;24.42;32.58;100945.59;5051229;28;45439;-74
2023/03/29 07:48:15;;;;;;;;;3.50;3.25;;;;;24.41;32.87;100931.34;5023008;28;46207;-75
2023/03/29 07:50:42;;;;;;;;;3.25;2.25;;;;;24.39;33.00;100941.31;5031659;28;45335;-74
2023/03/29 07:53:07;;;;;;;;;7.75;2.50;;;;;24.34;32.92;100934.66;5046709;28;45384;-76
2023/03/29 07:55:33;;;;;;;;;2.00;1.50;;;;;24.32;32.73;100933.94;5032557;28;45567;-70
2023/03/29 07:57:59;;;;;;;;;3.25;1.75;;;;;24.34;32.75;100943.53;5050838;28;45364;-68
2023/03/29 08:00:24;;;;;;;;;3.50;1.75;;;;;24.31;32.71;100940.25;5030999;28;45408;-69
2023/03/29 08:02:51;;;;;;;;;2.25;2.25;;;;;24.32;32.87;100948.16;5016389;28;45687;-69
2023/03/29 08:05:17;;;;;;;;;1.50;1.50;;;;;24.31;32.78;100956.31;5042129;28;45785;-71
2023/03/29 08:07:44;;;;;;;;;4.25;3.00;;;;;24.30;32.94;100959.97;5045869;28;46228;-71
2023/03/29 08:10:16;;;;;;;;;3.00;3.00;;;;;24.29;32.98;100959.09;5032538;28;45762;-68
2023/03/29 08:12:42;;;;;;;;;2.50;2.25;;;;;24.28;33.13;100953.91;5057944;28;45348;-71
2023/03/29 08:15:09;;;;;;;;;4.00;2.25;;;;;24.27;32.87;100961.06;5059027;28;45395;-76
2023/03/29 08:17:36;;;;;;;;;2.75;2.50;;;;;24.24;32.92;100956.81;5025084;28;47305;-86
2023/03/29 08:20:04;;;;;;;;;2.50;1.50;;;;;24.30;32.77;100965.31;5025730;28;45651;-84
2023/03/29 08:22:31;;;;;;;;;4.75;3.25;;;;;24.32;33.08;100968.72;5017736;28;45274;-72
2023/03/29 08:24:56;;;;;;;;;1.25;1.25;;;;;24.31;33.16;100961.66;5051661;28;45483;-76
2023/03/29 08:27:21;;;;;;;;;1.50;1.25;;;;;24.32;33.13;100948.16;5025624;28;45757;-72
2023/03/29 08:29:47;;;;;;;;;1.25;1.25;;;;;24.35;33.06;100966.63;5029873;28;46756;-73
2023/03/29 08:32:13;;;;;;;;;1.75;1.75;;;;;24.32;33.00;100953.50;5016090;28;45370;-70
2023/03/29 08:34:38;;;;;;;;;5.25;3.25;;;;;24.35;33.00;100955.09;5047183;28;45363;-71
2023/03/29 08:37:04;;;;;;;;;6.00;2.50;;;;;24.36;32.97;100954.94;5052233;28;45368;-71
2023/03/29 08:39:30;;;;;;;;;1.50;1.50;;;;;24.35;33.29;100949.75;5034450;28;47071;-71
2023/03/29 08:42:37;;;;;;;;;1.50;1.50;;;;;24.38;32.96;100953.03;5055005;28;45400;-76
2023/03/29 08:45:26;;;;;;;;;2.00;1.25;;;;;24.39;33.10;100953.88;5008808;28;45550;-74
2023/03/29 08:48:27;;;;;;;;;4.50;2.50;;;;;24.39;32.90;100953.88;5034590;28;47719;-71
2023/03/29 08:50:54;;;;;;;;;3.25;2.25;;;;;24.38;33.10;100952.16;5031276;28;45247;-70
2023/03/29 08:53:28;;;;;;;;;2.25;2.25;;;;;24.34;32.76;100946.19;5031037;28;45431;-68
2023/03/29 08:55:57;;;;;;;;;3.25;2.25;;;;;24.34;32.84;100935.50;5039530;28;45495;-70
2023/03/29 08:58:27;;;;;;;;;5.50;3.00;;;;;24.33;33.26;100940.97;5051524;28;46294;-71
2023/03/29 09:00:56;;;;;;;;;2.25;2.25;;;;;24.32;33.15;100933.94;5046613;28;46861;-71
2023/03/29 09:03:29;;;;;;;;;4.00;2.50;;;;;24.31;33.29;100940.25;5061755;28;45387;-72
2023/03/29 09:06:02;;;;;;;;;5.00;2.50;;;;;24.30;32.98;100950.13;5061914;28;45501;-69
2023/03/29 09:08:27;;;;;;;;;3.25;1.75;;;;;24.31;33.17;100954.50;5024916;28;48363;-73
2023/03/29 09:11:26;;;;;;;;;3.50;2.50;;;;;24.32;33.28;100964.22;5029027;28;58414;-73
2023/03/29 09:14:07;;;;;;;;;2.75;2.00;;;;;24.33;32.96;100949.00;5013553;28;46288;-73
2023/03/29 09:17:00;;;;;;;;;1.75;1.75;;;;;24.33;33.13;100947.19;5052615;28;45427;-73
2023/03/29 09:19:44;;;;;;;;;1.25;1.25;;;;;24.35;33.19;100947.06;5038037;28;48088;-75
2023/03/29 09:22:30;;;;;;;;;2.25;2.00;;;;;24.34;33.23;100940.84;5054091;28;45447;-74
2023/03/29 09:25:13;;;;;;;;;2.25;1.25;;;;;24.34;33.14;100940.00;5045796;28;45495;-73
2023/03/29 09:28:08;;;;;;;;;2.25;2.25;;;;;24.30;33.07;100935.91;5039841;28;45290;-71
2023/03/29 09:30:41;;;;;;;;;2.50;2.50;;;;;24.23;33.24;100939.06;5038832;28;45498;-75
2023/03/29 09:33:06;;;;;;;;;3.25;2.75;;;;;24.26;33.26;100932.63;5027481;28;45851;-76
2023/03/29 09:35:36;;;;;;;;;3.00;3.00;;;;;24.26;33.29;100929.94;5046181;28;45469;-73
2023/03/29 09:38:02;;;;;;;;;3.00;2.75;;;;;24.25;33.41;100931.75;5018666;28;45497;-70
2023/03/29 09:40:40;;;;;;;;;3.25;2.25;;;;;24.25;33.53;100928.25;5030469;28;46458;-74
2023/03/29 09:43:08;;;;;;;;;3.75;2.25;;;;;24.24;33.55;100926.53;5039602;28;45516;-72
2023/03/29 09:45:36;;;;;;;;;3.25;1.25;;;;;24.25;33.34;100929.06;5037551;28;45544;-70
2023/03/29 09:48:14;;;;;;;;;3.75;2.25;;;;;24.30;33.39;100922.53;5037197;28;45501;-73
2023/03/29 09:50:42;;;;;;;;;1.25;1.25;;;;;24.32;33.36;100920.56;5041152;28;45455;-72
2023/03/29 09:53:08;;;;;;;;;3.25;2.25;;;;;24.33;33.55;100912.44;5034254;28;45852;-73
2023/03/29 09:55:36;;;;;;;;;2.00;2.00;;;;;24.35;33.47;100901.59;5056754;28;45596;-72
2023/03/29 09:58:26;;;;;;;;;2.00;1.00;;;;;24.39;33.20;100913.75;5014944;28;45512;-70
2023/03/29 10:00:56;;;;;;;;;3.00;3.00;;;;;24.37;33.32;100900.47;5053412;28;45403;-69
2023/03/29 10:03:24;;;;;;;;;2.25;1.50;;;;;24.41;33.41;100907.28;5048280;28;45327;-66
2023/03/29 10:05:53;;;;;;;;;2.00;1.25;;;;;24.42;33.33;100900.97;5043480;28;45475;-70
2023/03/29 10:08:25;;;;;;;;;1.25;1.25;;;;;24.43;33.44;100894.63;5027916;28;45541;-71
2023/03/29 10:10:51;;;;;;;;;3.25;3.25;;;;;24.45;33.71;100900.72;5028296;28;46084;-67
2023/03/29 10:13:29;;;;;;;;;1.25;1.25;;;;;24.43;33.22;100897.31;5028792;28;45353;-70
2023/03/29 10:16:17;;;;;;;;;3.25;2.00;;;;;24.49;33.48;100905.78;5059091;28;45433;-70
2023/03/29 10:18:42;;;;;;;;;3.25;1.25;;;;;24.45;33.02;100900.72;5026390;28;45278;-73
2023/03/29 10:21:11;;;;;;;;;2.50;2.25;;;;;24.47;33.17;100889.88;5029085;28;45967;-75
2023/03/29 10:23:37;;;;;;;;;2.25;2.25;;;;;24.48;33.51;100885.38;5023891;28;45540;-72
2023/03/29 10:26:05;;;;;;;;;2.25;1.75;;;;;24.50;33.52;100892.28;5048655;28;45395;-73
2023/03/29 10:28:31;;;;;;;;;3.50;3.00;;;;;24.49;33.27;100882.56;5056812;28;45933;-72
2023/03/29 10:30:59;;;;;;;;;5.50;4.00;;;;;24.48;33.35;100867.47;5032065;28;46259;-73
2023/03/29 10:33:29;;;;;;;;;6.50;2.25;;;;;24.48;33.26;100864.81;5030157;28;45260;-74
2023/03/29 10:35:56;;;;;;;;;5.25;2.25;;;;;24.52;33.36;100881.47;5052229;28;45541;-74
2023/03/29 10:38:23;;;;;;;;;3.25;2.00;;;;;24.50;33.21;100876.22;5034766;28;45316;-74
2023/03/29 10:40:50;;;;;;;;;4.00;2.25;;;;;24.47;33.36;100872.97;5027418;28;45480;-73
2023/03/29 10:43:15;;;;;;;;;4.25;3.25;;;;;24.49;33.27;100868.31;5026773;28;46941;-72
2023/03/29 10:45:41;;;;;;;;;5.33;4.00;;;;;24.47;33.27;100871.16;5050472;28;45391;-76
2023/03/29 10:48:12;;;;;;;;;3.00;2.25;;;;;24.41;33.59;100855.59;5032964;28;57786;-77
2023/03/29 10:50:37;;;;;;;;;5.50;3.00;;;;;24.39;33.57;100855.72;5031866;28;45976;-79
2023/03/29 10:53:13;;;;;;;;;2.25;2.25;;;;;24.40;33.49;100859.25;5033629;28;45480;-83
2023/03/29 10:56:14;;;;;;;;;5.25;3.00;;;;;24.48;33.48;100856.78;5044365;28;45328;-75
2023/03/29 10:58:57;;;;;;;;;2.25;2.25;;;;;24.49;33.29;100853.16;5032232;28;45415;-74
2023/03/29 11:01:33;;;;;;;;;4.50;2.00;;;;;24.50;33.58;100851.31;5046576;28;45479;-73
2023/03/29 11:04:51;;;;;;;;;226.00;192.00;;;;;24.51;34.16;100845.84;5038148;28;45563;-77
2023/03/29 11:07:32;;;;;;;;;241.25;197.75;;;;;24.51;34.29;100845.84;4938458;28;45432;-73
2023/03/29 11:10:03;;;;;;;;;183.50;153.50;;;;;24.49;34.01;100845.13;5048496;28;45385;-69
2023/03/29 11:12:53;;;;;;;;;200.50;159.50;;;;;24.46;34.47;100840.03;5038133;28;47065;-68
2023/03/29 11:15:37;;;;;;;;;181.00;145.75;;;;;24.23;34.18;100800.00;5047647;28;45519;-70
2023/03/29 11:18:34;;;;;;;;;171.25;141.75;;;;;24.45;34.21;100840.97;5039884;28;45389;-71
2023/03/29 11:21:32;;;;;;;;;180.75;148.25;;;;;24.43;34.54;100837.59;5052746;28;45239;-68
2023/03/29 11:24:26;;;;;;;;;166.00;134.00;;;;;24.39;34.40;100834.31;5040748;28;45247;-68
2023/03/29 11:27:28;;;;;;;;;155.50;129.50;;;;;24.39;34.48;100833.50;5055382;28;45234;-67
2023/03/29 11:30:12;;;;;;;;;170.50;134.25;;;;;24.37;34.44;100828.25;5052569;28;45631;-69
2023/03/29 11:33:00;;;;;;;;;150.25;125.50;;;;;24.38;34.56;100834.44;5047161;28;45529;-68
2023/03/29 11:35:42;;;;;;;;;156.75;126.00;;;;;24.37;34.48;100836.28;5054965;28;45382;-68
2023/03/29 11:38:28;;;;;;;;;152.25;120.00;;;;;24.35;34.47;100835.56;5028766;28;45420;-67